Time;durP1;ratioP1;P1;durP2;ratioP2;P2;SDS_P1;SDS_P2;PMS_P1;PMS_P2;Temp;Humidity;BMP_temperature;BMP_pressure;BME280_temperature;BME280_humidity;BME280_pressure;Samples;Min_cycle;Max_cycle;Signal;HPM_P1;HPM_P2
2021/12/27 00:01:11;;;;;;;256.20;99.70;;;;;;;-10.55;68.92;98998.91;103023;1319;99233;-73
2021/12/27 00:03:39;;;;;;;255.70;97.20;;;;;;;-10.67;68.59;99000.02;103024;1317;107949;-71
2021/12/27 00:06:09;;;;;;;228.00;93.50;;;;;;;-10.68;68.70;98994.33;103002;1317;99196;-73
2021/12/27 00:08:43;;;;;;;222.10;90.30;;;;;;;-10.65;68.81;98992.33;103061;1316;99249;-71
2021/12/27 00:11:15;;;;;;;238.10;92.60;;;;;;;-10.63;68.79;98993.02;103201;1317;112852;-71
2021/12/27 00:13:43;;;;;;;244.30;96.50;;;;;;;-10.61;68.82;98996.65;103236;1316;99268;-70
2021/12/27 00:16:11;;;;;;;236.00;94.40;;;;;;;-10.60;68.82;98994.95;103017;1318;107803;-73
2021/12/27 00:18:39;;;;;;;230.30;90.70;;;;;;;-10.58;68.77;98993.94;102954;1314;99326;-70
2021/12/27 00:21:08;;;;;;;249.00;96.90;;;;;;;-10.68;68.40;98996.23;103119;1319;99269;-71
2021/12/27 00:23:36;;;;;;;232.60;91.10;;;;;;;-10.77;68.44;98995.94;103148;1317;112947;-71
2021/12/27 00:26:04;;;;;;;245.80;100.40;;;;;;;-10.74;68.60;99001.98;103116;1317;99176;-71
2021/12/27 00:28:33;;;;;;;240.50;91.60;;;;;;;-10.76;68.57;99006.92;103016;1316;108145;-71
2021/12/27 00:31:05;;;;;;;233.10;92.40;;;;;;;-10.76;68.49;99007.77;102973;1318;97809;-71
2021/12/27 00:33:33;;;;;;;240.70;93.20;;;;;;;-10.78;68.59;99004.14;103060;1319;98025;-71
2021/12/27 00:36:01;;;;;;;238.90;88.90;;;;;;;-10.68;68.88;99001.20;103066;1316;112778;-71
2021/12/27 00:38:29;;;;;;;229.00;92.40;;;;;;;-10.60;68.82;99002.84;103106;1317;99281;-71
2021/12/27 00:40:57;;;;;;;238.10;87.80;;;;;;;-10.59;68.65;98997.36;103125;1319;109069;-72
2021/12/27 00:43:24;;;;;;;215.00;87.30;;;;;;;-10.61;68.58;98992.71;103116;1316;97472;-71
2021/12/27 00:45:52;;;;;;;233.80;90.90;;;;;;;-10.67;68.38;98992.30;102864;1319;99235;-71
2021/12/27 00:48:20;;;;;;;232.20;86.10;;;;;;;-10.76;68.35;98996.81;103140;1320;112938;-73
2021/12/27 00:50:51;;;;;;;215.10;84.80;;;;;;;-10.73;68.40;98990.33;103107;1317;99264;-72
2021/12/27 00:53:19;;;;;;;194.80;82.30;;;;;;;-10.75;68.37;98993.91;102882;1318;107419;-72
2021/12/27 00:55:46;;;;;;;215.70;83.90;;;;;;;-10.71;68.44;98993.62;103143;1316;99325;-72
2021/12/27 00:58:14;;;;;;;203.10;83.90;;;;;;;-10.70;68.50;98988.84;103067;1322;99233;-71
2021/12/27 01:00:46;;;;;;;221.00;85.60;;;;;;;-10.74;68.31;98991.19;103084;1316;112886;-72
2021/12/27 01:03:15;;;;;;;214.30;79.90;;;;;;;-10.79;68.34;98994.55;103114;1319;100490;-71
2021/12/27 01:05:43;;;;;;;209.60;80.50;;;;;;;-10.78;68.34;98991.98;103063;1319;107875;-71
2021/12/27 01:08:11;;;;;;;203.20;81.60;;;;;;;-10.81;68.21;98988.54;103121;1316;99137;-72
2021/12/27 01:16:18;;;;;;;205.00;82.20;;;;;;;-10.81;68.18;98980.13;102906;1317;99380;-70
2021/12/27 01:18:50;;;;;;;231.20;84.10;;;;;;;-10.77;68.35;98978.30;103068;1317;107846;-71
2021/12/27 01:21:24;;;;;;;215.20;85.70;;;;;;;-10.75;68.28;98979.35;103073;1316;98022;-71
2021/12/27 01:23:55;;;;;;;211.00;80.70;;;;;;;-10.74;68.19;98976.95;103022;1320;99350;-70
2021/12/27 01:26:26;;;;;;;218.90;85.50;;;;;;;-10.68;68.40;98974.29;103034;1319;112870;-70
2021/12/27 01:29:01;;;;;;;211.90;88.60;;;;;;;-10.65;68.26;98978.44;103048;1317;99252;-71
2021/12/27 01:31:29;;;;;;;225.60;87.40;;;;;;;-10.66;68.20;98980.83;102995;1315;107834;-71
2021/12/27 01:33:57;;;;;;;224.90;87.10;;;;;;;-10.61;68.46;98976.43;102808;1318;97372;-70
2021/12/27 01:36:31;;;;;;;209.30;81.10;;;;;;;-10.50;68.46;98977.91;103153;1317;99493;-71
2021/12/27 01:39:01;;;;;;;207.10;80.30;;;;;;;-10.48;68.37;98974.15;103049;1321;112841;-71
2021/12/27 01:41:29;;;;;;;207.90;88.20;;;;;;;-10.40;68.69;98976.63;103079;1317;97879;-72
2021/12/27 01:43:58;;;;;;;222.40;80.20;;;;;;;-10.36;68.44;98975.63;103017;1317;108059;-72
2021/12/27 01:46:28;;;;;;;207.90;84.30;;;;;;;-10.30;68.60;98972.77;103486;1319;99243;-72
2021/12/27 01:49:00;;;;;;;206.20;81.20;;;;;;;-10.20;68.74;98969.61;102843;1319;99342;-71
2021/12/27 01:51:31;;;;;;;189.00;75.30;;;;;;;-10.10;68.87;98970.20;102997;1316;112912;-71
2021/12/27 01:54:03;;;;;;;208.10;80.70;;;;;;;-10.00;68.79;98968.41;102898;1317;99219;-71
2021/12/27 01:56:33;;;;;;;198.50;79.30;;;;;;;-9.93;68.70;98970.18;102900;1322;107827;-70
2021/12/27 01:59:03;;;;;;;204.60;81.30;;;;;;;-9.93;68.53;98974.13;102987;1318;98225;-70
2021/12/27 02:01:32;;;;;;;194.10;73.40;;;;;;;-10.02;68.47;98969.94;103111;1319;99364;-71
2021/12/27 02:04:03;;;;;;;192.20;75.80;;;;;;;-9.98;68.49;98968.59;103068;1318;112828;-71
2021/12/27 02:06:31;;;;;;;207.00;81.20;;;;;;;-9.99;68.31;98968.41;102892;1322;99294;-70
2021/12/27 02:08:59;;;;;;;206.90;84.90;;;;;;;-10.00;68.54;98963.61;103005;1318;107728;-73
2021/12/27 02:11:27;;;;;;;199.30;79.40;;;;;;;-9.90;68.63;98963.85;102967;1316;99372;-73
2021/12/27 02:13:56;;;;;;;198.50;72.60;;;;;;;-9.79;68.78;98967.04;102893;1316;101110;-71
2021/12/27 02:16:25;;;;;;;177.30;73.00;;;;;;;-9.81;68.48;98967.38;102888;1315;111647;-71
2021/12/27 02:18:53;;;;;;;192.40;73.50;;;;;;;-9.78;68.70;98967.55;102964;1317;99170;-71
2021/12/27 02:21:23;;;;;;;181.30;70.90;;;;;;;-9.69;68.85;98960.94;102931;1317;107505;-71
2021/12/27 02:23:54;;;;;;;193.40;72.30;;;;;;;-9.57;69.07;98954.48;102926;1315;97910;-71
2021/12/27 02:26:22;;;;;;;166.90;69.40;;;;;;;-9.48;68.83;98945.95;103101;1316;97313;-71
2021/12/27 02:28:51;;;;;;;176.70;64.30;;;;;;;-9.44;68.78;98948.39;102956;1316;112815;-71
2021/12/27 02:31:19;;;;;;;171.90;65.40;;;;;;;-9.57;68.49;98946.25;103083;1315;99341;-71
2021/12/27 02:33:48;;;;;;;159.10;60.70;;;;;;;-9.56;68.58;98949.34;102994;1315;108333;-71
2021/12/27 02:36:17;;;;;;;172.30;66.70;;;;;;;-9.76;68.01;98949.89;103109;1315;99901;-72
2021/12/27 02:38:46;;;;;;;162.80;63.30;;;;;;;-9.96;68.03;98948.02;103139;1316;99339;-70
2021/12/27 02:41:15;;;;;;;166.90;64.20;;;;;;;-10.08;67.97;98951.52;102940;1319;112732;-71
2021/12/27 02:43:43;;;;;;;165.60;66.60;;;;;;;-10.06;68.38;98950.70;102967;1315;99339;-73
2021/12/27 02:46:14;;;;;;;163.30;64.50;;;;;;;-9.98;68.35;98954.00;103041;1316;107750;-71
2021/12/27 02:48:46;;;;;;;173.80;65.80;;;;;;;-9.97;68.41;98950.77;102876;1319;149915;-73
2021/12/27 02:51:18;;;;;;;176.40;67.00;;;;;;;-9.85;68.64;98950.34;103090;1316;99284;-73
2021/12/27 02:53:48;;;;;;;153.40;63.00;;;;;;;-9.76;68.41;98946.45;102997;1320;114251;-73
2021/12/27 02:56:18;;;;;;;160.00;65.40;;;;;;;-9.78;68.48;98950.56;103139;1319;99358;-71
2021/12/27 02:58:47;;;;;;;157.70;60.40;;;;;;;-9.74;68.48;98949.91;103092;1316;107896;-71
2021/12/27 03:01:22;;;;;;;155.40;60.50;;;;;;;-9.71;68.51;98951.98;103136;1315;99254;-71
2021/12/27 03:03:52;;;;;;;167.40;62.30;;;;;;;-9.58;68.72;98950.70;102992;1321;97934;-73
2021/12/27 03:06:21;;;;;;;147.50;60.10;;;;;;;-9.49;68.56;98950.25;103083;1315;112620;-72
2021/12/27 03:08:49;;;;;;;152.40;60.80;;;;;;;-9.51;68.43;98946.62;102982;1317;99263;-72
2021/12/27 03:11:18;;;;;;;149.60;58.40;;;;;;;-9.48;68.53;98941.84;102988;1316;106889;-72
2021/12/27 03:13:52;;;;;;;149.30;58.40;;;;;;;-9.40;68.74;98939.83;103013;1315;99288;-72
2021/12/27 03:16:23;;;;;;;140.30;57.10;;;;;;;-9.30;68.73;98935.08;102962;1317;101865;-72
2021/12/27 03:18:54;;;;;;;141.40;56.00;;;;;;;-9.42;68.27;98932.59;103027;1315;112845;-73
2021/12/27 03:21:23;;;;;;;131.80;50.80;;;;;;;-9.60;68.09;98935.76;103016;1321;99346;-72
2021/12/27 03:23:51;;;;;;;135.80;51.50;;;;;;;-9.70;68.08;98939.30;103106;1316;107914;-73
2021/12/27 03:26:21;;;;;;;138.70;53.20;;;;;;;-9.61;68.57;98940.21;102985;1316;99351;-73
2021/12/27 03:28:51;;;;;;;130.50;50.20;;;;;;;-9.46;68.79;98936.53;103081;1319;99193;-73
2021/12/27 03:31:19;;;;;;;130.80;52.10;;;;;;;-9.25;68.95;98935.10;103079;1316;113348;-73
2021/12/27 03:33:48;;;;;;;115.20;46.60;;;;;;;-9.21;68.67;98932.20;103181;1316;99246;-72
2021/12/27 03:36:16;;;;;;;122.60;50.10;;;;;;;-9.15;68.59;98934.29;103152;1316;107829;-72
2021/12/27 03:38:52;;;;;;;124.50;49.00;;;;;;;-9.27;68.38;98933.52;102980;1320;96727;-72
2021/12/27 03:41:24;;;;;;;114.30;46.40;;;;;;;-9.25;68.54;98937.50;103215;1315;99310;-71
2021/12/27 03:43:51;;;;;;;125.30;48.30;;;;;;;-9.17;68.70;98939.77;103041;1322;112848;-72
2021/12/27 03:46:19;;;;;;;121.50;47.80;;;;;;;-9.19;68.42;98941.15;103033;1321;99234;-72
2021/12/27 03:48:47;;;;;;;114.70;46.20;;;;;;;-9.23;68.42;98945.77;103095;1316;108766;-71
2021/12/27 03:51:15;;;;;;;121.60;48.40;;;;;;;-9.21;68.65;98944.21;103007;1316;99248;-73
2021/12/27 03:53:44;;;;;;;110.10;45.90;;;;;;;-9.12;68.70;98942.89;103019;1319;98413;-74
2021/12/27 03:56:12;;;;;;;105.90;44.20;;;;;;;-9.00;68.90;98942.25;103174;1317;112849;-72
2021/12/27 03:58:56;;;;;;;102.30;41.10;;;;;;;-8.81;69.14;98944.55;103045;1320;97728;-72
2021/12/27 04:01:29;;;;;;;115.10;46.60;;;;;;;-8.69;69.06;98939.77;102953;1316;107851;-72
2021/12/27 04:03:57;;;;;;;113.80;44.30;;;;;;;-8.67;68.80;98944.43;103149;1319;99943;-75
2021/12/27 04:06:28;;;;;;;119.80;45.60;;;;;;;-8.66;68.89;98944.26;103142;1315;99776;-72
2021/12/27 04:08:57;;;;;;;120.00;47.40;;;;;;;-8.70;68.74;98945.45;102982;1316;112952;-72
2021/12/27 04:11:28;;;;;;;122.70;51.10;;;;;;;-8.60;69.13;98945.33;103107;1316;99223;-71
2021/12/27 04:13:59;;;;;;;110.20;42.30;;;;;;;-8.50;69.08;98946.20;103045;1316;107929;-72
2021/12/27 04:16:29;;;;;;;110.20;45.30;;;;;;;-8.54;68.76;98946.52;102949;1315;99976;-72
2021/12/27 04:18:57;;;;;;;110.20;44.50;;;;;;;-8.53;68.95;98945.67;102968;1321;99311;-72
2021/12/27 04:21:25;;;;;;;106.40;43.50;;;;;;;-8.40;69.08;98941.73;102971;1316;112998;-71
2021/12/27 04:23:53;;;;;;;107.90;43.20;;;;;;;-8.41;68.95;98938.10;102996;1315;99326;-72
2021/12/27 04:26:23;;;;;;;98.80;40.60;;;;;;;-8.36;69.15;98938.12;103007;1316;107861;-73
2021/12/27 04:28:52;;;;;;;100.50;42.40;;;;;;;-8.24;69.28;98940.19;102951;1315;97923;-71
2021/12/27 04:31:23;;;;;;;100.20;40.80;;;;;;;-8.24;69.03;98933.14;103049;1316;99355;-71
2021/12/27 04:33:52;;;;;;;92.30;42.00;;;;;;;-8.38;68.65;98928.83;103114;1315;112344;-72
2021/12/27 04:36:20;;;;;;;92.80;40.40;;;;;;;-8.55;68.60;98926.06;103149;1316;96638;-72
2021/12/27 04:38:50;;;;;;;94.80;42.80;;;;;;;-8.57;68.69;98925.21;102895;1316;108873;-72
2021/12/27 04:41:21;;;;;;;91.30;38.80;;;;;;;-8.55;68.94;98918.66;102911;1316;99378;-73
2021/12/27 04:43:49;;;;;;;86.60;38.30;;;;;;;-8.50;68.77;98916.27;102924;1317;99319;-72
2021/12/27 04:46:18;;;;;;;87.40;39.00;;;;;;;-8.49;68.89;98918.14;102767;1316;112957;-72
2021/12/27 04:48:51;;;;;;;79.00;36.50;;;;;;;-8.45;69.03;98920.38;103141;1315;97467;-71
2021/12/27 04:51:20;;;;;;;88.30;39.60;;;;;;;-8.37;69.01;98923.48;103186;1316;108055;-72
2021/12/27 04:53:51;;;;;;;87.90;39.00;;;;;;;-8.26;69.32;98921.61;103147;1316;99272;-71
2021/12/27 04:56:19;;;;;;;83.10;36.00;;;;;;;-8.19;69.19;98923.69;103219;1316;99425;-72
2021/12/27 04:58:47;;;;;;;93.80;38.50;;;;;;;-8.23;69.03;98923.16;103098;1318;111822;-72
2021/12/27 05:01:17;;;;;;;89.60;39.00;;;;;;;-8.13;69.28;98919.73;103238;1315;97353;-72
2021/12/27 05:03:45;;;;;;;86.90;37.30;;;;;;;-8.12;68.95;98926.27;103256;1315;107866;-72
2021/12/27 05:06:14;;;;;;;85.00;37.40;;;;;;;-8.27;68.75;98923.32;103109;1316;99319;-70
2021/12/27 05:08:42;;;;;;;86.40;36.80;;;;;;;-8.37;68.78;98922.46;103102;1316;99201;-71
2021/12/27 05:11:10;;;;;;;81.20;34.90;;;;;;;-8.35;68.90;98916.77;103075;1317;111606;-71
2021/12/27 05:13:40;;;;;;;85.30;36.70;;;;;;;-8.39;68.78;98911.96;103033;1321;99319;-71
2021/12/27 05:16:08;;;;;;;79.90;36.70;;;;;;;-8.51;68.63;98911.11;103192;1316;107810;-72
2021/12/27 05:18:36;;;;;;;77.20;34.10;;;;;;;-8.52;68.97;98910.59;103223;1316;98012;-72
2021/12/27 05:21:03;;;;;;;84.40;38.10;;;;;;;-8.32;69.35;98912.13;103236;1317;99284;-73
2021/12/27 05:23:33;;;;;;;78.10;36.30;;;;;;;-8.18;69.34;98914.56;103185;1316;112960;-72
2021/12/27 05:26:02;;;;;;;82.10;33.70;;;;;;;-8.21;68.95;98919.39;103086;1316;99312;-71
2021/12/27 05:28:30;;;;;;;78.40;35.00;;;;;;;-8.30;68.82;98919.88;103075;1318;108477;-71
2021/12/27 05:30:58;;;;;;;76.00;33.10;;;;;;;-8.37;68.86;98921.26;103167;1316;99219;-71
2021/12/27 05:33:27;;;;;;;83.80;35.80;;;;;;;-8.33;69.04;98921.60;103196;1315;99244;-72
2021/12/27 05:35:58;;;;;;;84.10;37.90;;;;;;;-8.38;68.91;98922.29;103226;1317;114609;-72
2021/12/27 05:38:27;;;;;;;91.50;37.70;;;;;;;-8.36;69.12;98923.49;103204;1321;96647;-72
2021/12/27 05:40:55;;;;;;;80.10;35.20;;;;;;;-8.37;68.94;98921.09;103147;1316;107731;-72
2021/12/27 05:43:27;;;;;;;95.90;38.60;;;;;;;-8.33;69.28;98924.01;103217;1316;99435;-72
2021/12/27 05:45:54;;;;;;;80.20;34.70;;;;;;;-8.26;69.24;98925.55;103157;1317;97321;-71
2021/12/27 05:48:24;;;;;;;95.60;40.60;;;;;;;-8.26;69.08;98922.98;103218;1316;113638;-71
2021/12/27 05:50:51;;;;;;;101.70;42.20;;;;;;;-8.30;68.96;98921.42;103216;1316;98618;-71
2021/12/27 05:53:20;;;;;;;95.20;38.60;;;;;;;-8.39;68.87;98920.73;103150;1316;106431;-71
2021/12/27 05:55:51;;;;;;;103.00;41.60;;;;;;;-8.46;68.92;98913.85;103046;1321;99330;-71
2021/12/27 05:58:19;;;;;;;102.90;43.10;;;;;;;-8.52;68.88;98911.29;103226;1315;96724;-70
2021/12/27 06:00:48;;;;;;;107.50;45.70;;;;;;;-8.52;69.06;98912.83;103142;1317;112788;-71
2021/12/27 06:03:20;;;;;;;97.10;39.50;;;;;;;-8.50;69.09;98910.08;103200;1316;99190;-69
2021/12/27 06:05:49;;;;;;;83.90;37.70;;;;;;;-8.47;69.05;98910.75;103018;1317;107838;-70
2021/12/27 06:08:17;;;;;;;93.30;37.30;;;;;;;-8.45;69.08;98912.12;103038;1316;99350;-71
2021/12/27 06:10:44;;;;;;;74.20;32.60;;;;;;;-8.52;68.83;98909.39;103079;1316;99257;-72
2021/12/27 06:13:14;;;;;;;84.50;35.30;;;;;;;-8.57;68.78;98903.88;103108;1317;112658;-73
2021/12/27 06:15:43;;;;;;;79.40;36.10;;;;;;;-8.70;68.67;98903.00;103133;1316;97757;-71
2021/12/27 06:18:12;;;;;;;84.40;36.70;;;;;;;-8.65;68.95;98904.04;102972;1317;105689;-71
2021/12/27 06:20:40;;;;;;;81.10;37.00;;;;;;;-8.67;68.87;98907.47;103181;1316;99277;-71
2021/12/27 06:23:09;;;;;;;86.90;35.10;;;;;;;-8.70;68.74;98909.69;103153;1322;99465;-71
2021/12/27 06:25:38;;;;;;;87.20;38.20;;;;;;;-8.76;68.65;98910.36;103058;1319;112938;-71
2021/12/27 06:28:06;;;;;;;85.40;37.20;;;;;;;-8.81;68.64;98910.88;103227;1316;99256;-71
2021/12/27 06:30:34;;;;;;;90.80;35.70;;;;;;;-8.90;68.63;98909.64;103186;1316;107879;-72
2021/12/27 06:33:03;;;;;;;91.00;37.60;;;;;;;-9.02;68.40;98904.27;103166;1315;100132;-72
2021/12/27 06:35:30;;;;;;;86.50;41.20;;;;;;;-9.15;68.26;98910.08;103133;1316;99308;-72
2021/12/27 06:37:59;;;;;;;93.60;41.80;;;;;;;-9.11;68.75;98905.10;103194;1315;112808;-71
2021/12/27 06:40:28;;;;;;;89.70;38.80;;;;;;;-9.00;68.82;98908.75;103034;1317;99246;-72
2021/12/27 06:42:58;;;;;;;100.30;40.20;;;;;;;-8.94;68.84;98906.52;103175;1316;108009;-76
2021/12/27 06:45:27;;;;;;;100.80;41.00;;;;;;;-8.91;68.69;98911.70;103080;1315;97433;-70
2021/12/27 06:47:56;;;;;;;91.70;39.40;;;;;;;-8.99;68.41;98911.50;103088;1316;99373;-70
2021/12/27 06:50:25;;;;;;;93.50;40.00;;;;;;;-9.02;68.63;98910.80;103155;1316;112805;-69
2021/12/27 06:52:53;;;;;;;99.70;42.80;;;;;;;-8.99;68.70;98910.48;103205;1315;99239;-70
2021/12/27 06:55:22;;;;;;;102.70;44.30;;;;;;;-9.00;68.73;98913.73;103147;1316;106882;-69
2021/12/27 06:57:51;;;;;;;109.80;45.10;;;;;;;-9.02;68.54;98913.73;103145;1315;99154;-69
2021/12/27 07:00:20;;;;;;;106.00;46.30;;;;;;;-9.03;68.45;98914.93;103179;1317;96638;-70
2021/12/27 07:02:48;;;;;;;113.60;46.30;;;;;;;-9.07;68.61;98913.36;103208;1316;113478;-69
2021/12/27 07:05:17;;;;;;;113.30;46.90;;;;;;;-8.98;68.79;98918.73;103193;1315;99342;-72
2021/12/27 07:07:47;;;;;;;101.30;44.00;;;;;;;-8.94;68.59;98923.02;103172;1316;107701;-77
2021/12/27 07:10:17;;;;;;;111.80;45.60;;;;;;;-8.97;68.44;98925.61;103160;1316;99378;-73
2021/12/27 07:12:46;;;;;;;116.30;47.50;;;;;;;-9.02;68.60;98924.90;103259;1315;99226;-73
2021/12/27 07:15:14;;;;;;;113.60;46.60;;;;;;;-9.04;68.53;98920.25;103170;1316;112100;-73
2021/12/27 07:17:43;;;;;;;109.90;48.30;;;;;;;-9.06;68.48;98916.11;103035;1316;97556;-72
2021/12/27 07:20:12;;;;;;;113.20;50.40;;;;;;;-9.08;68.39;98918.34;103048;1315;107842;-69
2021/12/27 07:22:41;;;;;;;115.70;45.50;;;;;;;-9.06;68.67;98918.69;103069;1316;99268;-75
2021/12/27 07:25:10;;;;;;;116.90;50.60;;;;;;;-9.10;68.44;98915.59;103075;1315;99267;-74
2021/12/27 07:27:38;;;;;;;112.40;45.20;;;;;;;-9.16;68.42;98912.98;103065;1316;112865;-71
2021/12/27 07:30:11;;;;;;;115.60;49.90;;;;;;;-9.31;68.07;98915.99;102948;1322;99237;-72
2021/12/27 07:32:38;;;;;;;128.20;53.10;;;;;;;-9.38;68.30;98909.79;102837;1320;107837;-71
2021/12/27 07:35:07;;;;;;;131.40;53.80;;;;;;;-9.40;68.41;98910.13;103114;1315;99288;-73
2021/12/27 07:37:36;;;;;;;120.70;49.60;;;;;;;-9.40;68.32;98909.43;103174;1315;99845;-73
2021/12/27 07:40:05;;;;;;;114.10;46.20;;;;;;;-9.43;68.10;98913.55;103214;1316;112863;-73
2021/12/27 07:42:33;;;;;;;126.20;51.00;;;;;;;-9.44;68.14;98911.14;103120;1315;99268;-72
2021/12/27 07:45:02;;;;;;;117.00;45.30;;;;;;;-9.38;68.34;98907.72;103149;1316;107724;-73
2021/12/27 07:47:31;;;;;;;104.50;41.70;;;;;;;-9.30;68.39;98906.91;103058;1316;99229;-75
2021/12/27 07:49:59;;;;;;;113.60;46.00;;;;;;;-9.17;68.45;98905.42;102803;1315;99297;-72
2021/12/27 07:52:27;;;;;;;111.80;43.60;;;;;;;-9.08;68.51;98905.62;102969;1316;112881;-73
2021/12/27 07:54:54;;;;;;;105.90;43.60;;;;;;;-9.02;68.44;98903.25;103111;1316;97830;-76
2021/12/27 07:57:22;;;;;;;101.80;41.50;;;;;;;-8.96;68.46;98899.49;103015;1320;107814;-75
2021/12/27 07:59:50;;;;;;;90.10;38.90;;;;;;;-8.85;68.59;98901.75;103091;1316;98009;-75
2021/12/27 08:02:18;;;;;;;87.20;38.30;;;;;;;-8.83;68.21;98898.84;102783;1318;96611;-75
2021/12/27 08:04:47;;;;;;;97.30;39.70;;;;;;;-8.84;68.36;98893.16;103016;1316;112850;-73
2021/12/27 08:07:16;;;;;;;90.70;36.80;;;;;;;-8.76;68.31;98885.44;102972;1316;99512;-75
2021/12/27 08:09:44;;;;;;;93.60;37.30;;;;;;;-8.74;68.32;98882.02;102888;1316;106309;-74
2021/12/27 08:12:14;;;;;;;93.30;38.40;;;;;;;-8.75;68.14;98885.96;102951;1316;99775;-74
2021/12/27 08:14:42;;;;;;;86.00;38.10;;;;;;;-8.81;68.13;98882.52;103079;1316;96662;-72
2021/12/27 08:17:10;;;;;;;90.10;38.60;;;;;;;-8.79;68.19;98881.84;103114;1316;112872;-70
2021/12/27 08:19:38;;;;;;;84.90;37.90;;;;;;;-8.66;68.57;98878.07;103176;1316;99148;-72
2021/12/27 08:22:06;;;;;;;86.90;36.60;;;;;;;-8.48;68.70;98874.81;103160;1316;107907;-72
2021/12/27 08:24:34;;;;;;;91.70;38.90;;;;;;;-8.43;68.51;98871.89;103120;1316;97230;-73
2021/12/27 08:27:03;;;;;;;90.70;38.50;;;;;;;-8.44;68.42;98869.13;102947;1316;99242;-71
2021/12/27 08:29:32;;;;;;;84.60;35.50;;;;;;;-8.38;68.18;98872.23;103055;1316;111979;-74
2021/12/27 08:32:01;;;;;;;88.00;38.50;;;;;;;-8.44;68.41;98869.81;102763;1314;99361;-75
2021/12/27 08:34:29;;;;;;;84.70;38.70;;;;;;;-8.35;68.47;98868.95;102973;1314;109384;-73
2021/12/27 08:37:00;;;;;;;86.70;37.50;;;;;;;-8.30;68.44;98864.30;103180;1316;99258;-78
2021/12/27 22:13:38;;;;;;;30.30;15.00;;;;;;;-3.35;72.65;98603.50;102949;1319;106724;-70
2021/12/27 22:16:06;;;;;;;35.90;16.40;;;;;;;-3.35;72.74;98595.87;102899;1318;99257;-69
2021/12/27 22:18:39;;;;;;;32.30;15.40;;;;;;;-3.33;72.78;98599.09;103032;1320;99225;-71
2021/12/27 22:21:08;;;;;;;35.20;16.10;;;;;;;-3.29;72.66;98596.77;102896;1316;113216;-70
2021/12/27 22:23:37;;;;;;;37.90;17.60;;;;;;;-3.26;72.98;98595.30;102870;1319;99310;-70
2021/12/27 22:26:04;;;;;;;32.10;15.20;;;;;;;-3.22;73.04;98594.85;102874;1318;108507;-70
2021/12/27 22:28:32;;;;;;;30.70;14.50;;;;;;;-3.21;72.89;98592.23;102867;1317;99145;-70
2021/12/27 22:31:00;;;;;;;31.20;14.80;;;;;;;-3.19;72.51;98593.23;102960;1318;99235;-70
2021/12/27 22:33:28;;;;;;;35.50;15.80;;;;;;;-3.17;72.59;98589.17;103004;1317;112773;-69
2021/12/27 22:35:56;;;;;;;32.40;13.70;;;;;;;-3.17;72.73;98585.90;102976;1319;99323;-70
2021/12/27 22:38:24;;;;;;;30.10;13.90;;;;;;;-3.15;72.60;98579.08;102988;1319;107753;-69
2021/12/27 22:40:56;;;;;;;31.40;13.70;;;;;;;-3.11;72.60;98580.02;102941;1322;99355;-69
2021/12/27 22:43:24;;;;;;;30.60;13.80;;;;;;;-3.07;72.91;98584.09;102928;1319;96622;-71
2021/12/27 22:46:00;;;;;;;28.40;13.00;;;;;;;-3.01;72.89;98583.25;102855;1319;113894;-72
2021/12/27 22:48:27;;;;;;;33.10;14.40;;;;;;;-3.03;72.76;98584.16;102854;1318;99232;-71
2021/12/27 22:50:56;;;;;;;32.00;14.10;;;;;;;-3.04;73.06;98584.36;102870;1322;107761;-72
2021/12/27 22:53:27;;;;;;;29.90;14.60;;;;;;;-3.09;72.82;98586.23;102898;1317;99329;-71
2021/12/27 22:55:54;;;;;;;28.20;12.40;;;;;;;-3.15;72.53;98587.92;102952;1317;99654;-71
2021/12/27 22:58:22;;;;;;;30.90;14.10;;;;;;;-3.25;72.76;98588.68;102975;1316;113291;-71
2021/12/27 23:00:50;;;;;;;30.80;13.20;;;;;;;-3.25;72.49;98590.77;102981;1320;96837;-73
2021/12/27 23:03:23;;;;;;;28.50;13.90;;;;;;;-3.17;72.89;98593.19;103021;1320;107892;-72
2021/12/27 23:05:53;;;;;;;30.60;14.20;;;;;;;-3.07;73.11;98592.23;102890;1320;98126;-73
2021/12/27 23:08:22;;;;;;;32.60;13.20;;;;;;;-3.01;72.69;98590.17;102805;1320;96593;-73
2021/12/27 23:10:51;;;;;;;30.80;14.10;;;;;;;-3.02;72.72;98595.42;102657;1318;112510;-72
2021/12/27 23:13:19;;;;;;;36.10;16.90;;;;;;;-3.05;72.87;98594.27;103577;1321;99335;-71
2021/12/27 23:15:48;;;;;;;33.90;16.40;;;;;;;-3.00;73.13;98591.37;103013;1316;107927;-70
2021/12/27 23:18:18;;;;;;;31.10;13.60;;;;;;;-2.96;72.85;98587.63;103011;1316;99292;-69
2021/12/27 23:20:46;;;;;;;28.30;13.50;;;;;;;-2.96;72.74;98588.86;103049;1317;97854;-70
2021/12/27 23:23:15;;;;;;;30.10;14.70;;;;;;;-2.95;72.98;98581.70;102980;1317;112815;-69
2021/12/27 23:25:48;;;;;;;32.20;14.10;;;;;;;-2.93;72.84;98584.95;102971;1322;99292;-70
2021/12/27 23:28:18;;;;;;;26.70;13.20;;;;;;;-2.94;72.82;98584.64;103010;1316;107870;-70
2021/12/27 23:30:48;;;;;;;28.50;13.40;;;;;;;-2.95;72.93;98586.57;102947;1316;99220;-70
2021/12/27 23:33:29;;;;;;;31.70;15.20;;;;;;;-2.93;72.84;98583.92;103018;1316;96577;-69
2021/12/27 23:35:59;;;;;;;27.40;12.00;;;;;;;-2.94;72.80;98580.31;102944;1317;113484;-70
2021/12/27 23:38:35;;;;;;;31.50;14.30;;;;;;;-3.01;72.53;98579.43;102958;1316;99229;-71
2021/12/27 23:41:09;;;;;;;32.00;14.90;;;;;;;-3.09;72.75;98577.73;102997;1316;107939;-71
2021/12/27 23:43:41;;;;;;;30.10;14.30;;;;;;;-3.07;72.66;98577.15;103047;1316;99243;-72
2021/12/27 23:46:12;;;;;;;31.70;14.20;;;;;;;-3.04;72.79;98576.90;103026;1319;99348;-69
2021/12/27 23:48:40;;;;;;;30.00;14.40;;;;;;;-2.98;72.78;98577.09;102957;1325;112860;-71
2021/12/27 23:51:07;;;;;;;28.30;13.50;;;;;;;-2.95;72.71;98573.21;102912;1322;99252;-72
2021/12/27 23:53:38;;;;;;;32.10;14.40;;;;;;;-2.93;72.91;98572.63;102917;1319;107673;-72
2021/12/27 23:56:09;;;;;;;29.80;12.90;;;;;;;-2.91;73.17;98572.05;102886;1322;99332;-71
2021/12/27 23:58:37;;;;;;;28.90;13.80;;;;;;;-2.88;73.25;98570.95;103061;1323;99483;-72
